Time;durP1;ratioP1;P1;durP2;ratioP2;P2;SDS_P1;SDS_P2;PMS_P1;PMS_P2;Temp;Humidity;BMP_temperature;BMP_pressure;BME280_temperature;BME280_humidity;BME280_pressure;Samples;Min_cycle;Max_cycle;Signal;HPM_P1;HPM_P2
2022/03/07 00:00:05;;;;;;;;;;;20.70;38.50;;;;;;683361;28;850;-84
2022/03/07 00:00:26;;;;;;;;;;;20.70;38.50;;;;;;686236;28;1314;-84
2022/03/07 00:00:47;;;;;;;;;;;20.70;38.50;;;;;;688573;28;842;-84
2022/03/07 00:01:09;;;;;;;;;;;20.80;38.60;;;;;;688489;28;839;-83
2022/03/07 00:01:29;;;;;;;;;;;20.80;38.60;;;;;;688670;28;803;-84
2022/03/07 00:01:50;;;;;;;;;;;20.80;38.60;;;;;;688358;28;1377;-83
2022/03/07 00:02:11;;;;;;;;;;;20.80;38.60;;;;;;685700;28;811;-83
2022/03/07 00:02:32;;;;;;;;;;;20.70;38.50;;;;;;685815;28;819;-84
2022/03/07 00:02:52;;;;;;;;;;;20.70;38.50;;;;;;682971;29;1225;-84
2022/03/07 00:03:13;;;;;;;;;;;20.80;38.50;;;;;;680405;29;898;-84
2022/03/07 00:03:33;;;;;;;;;;;20.80;38.70;;;;;;680752;29;819;-85
2022/03/07 00:03:54;;;;;;;;;;;20.70;38.40;;;;;;683295;28;1084;-84
2022/03/07 00:04:17;;;;;;;;;;;20.80;38.60;;;;;;685802;28;819;-84
2022/03/07 00:04:38;;;;;;;;;;;20.70;38.60;;;;;;683011;29;933;-84
2022/03/07 00:04:58;;;;;;;;;;;20.70;38.50;;;;;;681025;29;874;-84
2022/03/07 00:05:19;;;;;;;;;;;20.80;38.50;;;;;;683039;29;1418;-84
2022/03/07 00:05:39;;;;;;;;;;;20.80;38.50;;;;;;683640;28;1216;-84
2022/03/07 00:06:00;;;;;;;;;;;20.80;38.60;;;;;;685780;28;779;-84
2022/03/07 00:06:21;;;;;;;;;;;20.80;38.50;;;;;;683040;29;1158;-84
2022/03/07 00:06:42;;;;;;;;;;;20.80;38.60;;;;;;680633;29;1194;-84
2022/03/07 00:07:03;;;;;;;;;;;20.80;38.60;;;;;;683140;29;791;-85
2022/03/07 00:07:23;;;;;;;;;;;20.80;38.50;;;;;;683518;28;866;-84
2022/03/07 00:07:44;;;;;;;;;;;20.80;38.50;;;;;;685701;28;1895;-84
2022/03/07 00:08:04;;;;;;;;;;;20.80;38.60;;;;;;686203;28;902;-84
2022/03/07 00:08:25;;;;;;;;;;;20.80;38.50;;;;;;685629;28;1261;-84
2022/03/07 00:08:46;;;;;;;;;;;20.80;38.50;;;;;;688350;28;875;-84
2022/03/07 00:09:06;;;;;;;;;;;20.80;38.50;;;;;;687957;28;1221;-84
2022/03/07 00:09:27;;;;;;;;;;;20.80;38.50;;;;;;688453;28;867;-84
2022/03/07 00:09:47;;;;;;;;;;;20.80;38.50;;;;;;688420;28;853;-84
2022/03/07 00:10:08;;;;;;;;;;;20.80;38.60;;;;;;688481;28;839;-84
2022/03/07 00:10:28;;;;;;;;;;;20.70;38.40;;;;;;685632;28;1095;-84
2022/03/07 00:10:49;;;;;;;;;;;20.70;38.50;;;;;;683193;28;852;-84
2022/03/07 00:11:09;;;;;;;;;;;20.80;38.50;;;;;;685051;28;910;-84
2022/03/07 00:11:30;;;;;;;;;;;20.70;38.50;;;;;;685791;28;881;-84
2022/03/07 00:11:51;;;;;;;;;;;20.80;38.50;;;;;;685789;28;823;-84
2022/03/07 00:12:11;;;;;;;;;;;20.80;38.60;;;;;;685665;28;1342;-84
2022/03/07 00:12:32;;;;;;;;;;;20.80;38.50;;;;;;685240;28;883;-85
2022/03/07 00:12:52;;;;;;;;;;;20.80;38.50;;;;;;686061;28;879;-84
2022/03/07 00:13:13;;;;;;;;;;;20.70;38.50;;;;;;685702;28;1378;-84
2022/03/07 00:13:34;;;;;;;;;;;20.80;38.60;;;;;;685686;28;1224;-85
2022/03/07 00:13:55;;;;;;;;;;;20.80;38.60;;;;;;685642;28;1350;-84
2022/03/07 00:14:15;;;;;;;;;;;20.80;38.60;;;;;;685843;28;807;-84
2022/03/07 00:14:36;;;;;;;;;;;20.80;38.90;;;;;;685676;28;942;-84
2022/03/07 00:14:56;;;;;;;;;;;20.80;38.70;;;;;;685669;28;855;-84
2022/03/07 00:15:17;;;;;;;;;;;20.70;38.50;;;;;;685588;28;1375;-84
2022/03/07 00:15:38;;;;;;;;;;;20.80;38.50;;;;;;685937;28;819;-84
2022/03/07 00:15:58;;;;;;;;;;;20.70;38.50;;;;;;688444;28;806;-84
2022/03/07 00:16:19;;;;;;;;;;;20.80;38.60;;;;;;687936;28;1431;-84
2022/03/07 00:16:39;;;;;;;;;;;20.80;38.60;;;;;;685552;28;1465;-84
2022/03/07 00:17:00;;;;;;;;;;;20.70;38.50;;;;;;685772;28;847;-84
2022/03/07 00:17:20;;;;;;;;;;;20.80;38.60;;;;;;682922;29;1085;-83
2022/03/07 00:17:41;;;;;;;;;;;20.70;38.50;;;;;;683100;29;812;-84
2022/03/07 00:18:02;;;;;;;;;;;20.70;38.50;;;;;;680192;29;1581;-84
2022/03/07 00:18:22;;;;;;;;;;;20.70;38.50;;;;;;680574;29;1317;-85
2022/03/07 00:18:43;;;;;;;;;;;20.70;38.50;;;;;;683057;29;1255;-84
2022/03/07 00:19:03;;;;;;;;;;;20.70;38.50;;;;;;683205;29;1195;-84
2022/03/07 00:19:24;;;;;;;;;;;20.70;38.50;;;;;;682851;29;1111;-84
2022/03/07 00:19:45;;;;;;;;;;;20.70;38.40;;;;;;680335;29;957;-84
2022/03/07 00:20:05;;;;;;;;;;;20.70;38.30;;;;;;680727;29;965;-84
2022/03/07 00:20:26;;;;;;;;;;;20.70;38.30;;;;;;680656;29;1361;-83
2022/03/07 00:20:46;;;;;;;;;;;20.70;38.20;;;;;;683170;29;839;-84
2022/03/07 00:21:07;;;;;;;;;;;20.70;38.30;;;;;;680559;29;915;-84
2022/03/07 00:21:28;;;;;;;;;;;20.70;38.30;;;;;;683298;28;854;-83
2022/03/07 00:21:49;;;;;;;;;;;20.70;38.50;;;;;;683088;29;1511;-83
2022/03/07 00:22:09;;;;;;;;;;;20.70;38.20;;;;;;683466;28;1026;-83
2022/03/07 00:22:30;;;;;;;;;;;20.70;38.40;;;;;;685723;28;891;-84
2022/03/07 00:22:50;;;;;;;;;;;20.70;38.30;;;;;;686137;28;787;-83
2022/03/07 00:23:11;;;;;;;;;;;20.70;38.40;;;;;;688436;28;1057;-83
2022/03/07 00:23:32;;;;;;;;;;;20.70;38.30;;;;;;688423;28;795;-84
2022/03/07 00:23:52;;;;;;;;;;;20.70;38.30;;;;;;688603;28;850;-83
2022/03/07 00:24:13;;;;;;;;;;;20.60;38.40;;;;;;688109;28;1232;-84
2022/03/07 00:24:34;;;;;;;;;;;20.70;38.40;;;;;;688405;28;906;-84
2022/03/07 00:24:54;;;;;;;;;;;20.70;38.40;;;;;;688465;28;866;-83
2022/03/07 00:25:16;;;;;;;;;;;20.60;38.40;;;;;;688443;28;775;-83
2022/03/07 00:25:36;;;;;;;;;;;20.60;38.40;;;;;;688424;28;787;-84
2022/03/07 00:25:57;;;;;;;;;;;20.70;38.60;;;;;;688505;28;830;-85
2022/03/07 00:26:18;;;;;;;;;;;20.60;38.60;;;;;;688670;28;866;-84
2022/03/07 00:26:38;;;;;;;;;;;20.60;38.50;;;;;;688584;28;945;-83
2022/03/07 00:26:59;;;;;;;;;;;20.60;38.40;;;;;;688597;28;957;-84
2022/03/07 00:27:19;;;;;;;;;;;20.60;38.50;;;;;;688631;28;811;-84
2022/03/07 00:27:40;;;;;;;;;;;20.60;38.40;;;;;;688490;28;1910;-84
2022/03/07 00:28:00;;;;;;;;;;;20.60;38.50;;;;;;691010;28;1481;-84
2022/03/07 00:28:21;;;;;;;;;;;20.60;38.50;;;;;;691151;28;795;-84
2022/03/07 00:28:42;;;;;;;;;;;20.60;38.50;;;;;;688297;28;1418;-84
2022/03/07 00:29:03;;;;;;;;;;;20.60;38.40;;;;;;685628;28;1585;-83
2022/03/07 00:29:23;;;;;;;;;;;20.60;38.50;;;;;;685689;28;859;-85
2022/03/07 00:29:44;;;;;;;;;;;20.60;38.50;;;;;;685679;28;831;-84
2022/03/07 00:30:05;;;;;;;;;;;20.60;38.60;;;;;;685763;28;818;-84
2022/03/07 00:30:26;;;;;;;;;;;20.60;38.70;;;;;;686048;28;1333;-84
2022/03/07 00:30:46;;;;;;;;;;;20.60;38.50;;;;;;688406;28;953;-85
2022/03/07 00:31:07;;;;;;;;;;;20.60;38.60;;;;;;688582;28;918;-83
2022/03/07 00:31:28;;;;;;;;;;;20.60;38.70;;;;;;688668;28;846;-84
2022/03/07 00:31:48;;;;;;;;;;;20.60;38.60;;;;;;688462;28;906;-84
2022/03/07 00:32:09;;;;;;;;;;;20.60;38.60;;;;;;688604;28;906;-84
2022/03/07 00:32:29;;;;;;;;;;;20.60;38.60;;;;;;688259;28;1357;-84
2022/03/07 00:32:50;;;;;;;;;;;20.60;38.60;;;;;;688306;28;1321;-84
2022/03/07 00:33:14;;;;;;;;;;;20.60;38.60;;;;;;688412;28;921;-83
2022/03/07 00:33:34;;;;;;;;;;;20.60;38.60;;;;;;688272;28;1372;-84
2022/03/07 00:33:55;;;;;;;;;;;20.60;38.60;;;;;;688352;28;949;-84
2022/03/07 00:34:15;;;;;;;;;;;20.60;38.70;;;;;;687695;28;893;-84
2022/03/07 00:34:36;;;;;;;;;;;20.60;38.80;;;;;;688276;28;1234;-84
2022/03/07 00:34:56;;;;;;;;;;;20.60;38.70;;;;;;688396;28;941;-84
2022/03/07 00:35:17;;;;;;;;;;;20.60;38.70;;;;;;688411;28;803;-83
2022/03/07 00:35:38;;;;;;;;;;;20.60;38.80;;;;;;688402;28;851;-83
2022/03/07 00:35:58;;;;;;;;;;;20.60;38.70;;;;;;688468;28;862;-83
2022/03/07 00:36:19;;;;;;;;;;;20.60;38.80;;;;;;688375;28;965;-84
2022/03/07 00:36:40;;;;;;;;;;;20.60;38.80;;;;;;688269;28;815;-83
2022/03/07 00:37:00;;;;;;;;;;;20.60;38.90;;;;;;685321;28;1420;-84
2022/03/07 00:37:21;;;;;;;;;;;20.60;38.80;;;;;;685746;28;803;-84
2022/03/07 00:37:42;;;;;;;;;;;20.60;38.80;;;;;;685658;28;799;-84
2022/03/07 00:38:02;;;;;;;;;;;20.60;38.80;;;;;;685744;28;918;-84
2022/03/07 00:38:23;;;;;;;;;;;20.60;38.90;;;;;;683267;28;890;-84
2022/03/07 00:38:43;;;;;;;;;;;20.60;38.80;;;;;;685852;28;1545;-83
2022/03/07 00:39:04;;;;;;;;;;;20.60;38.80;;;;;;688306;28;838;-84
2022/03/07 00:39:24;;;;;;;;;;;20.60;38.90;;;;;;688271;28;1585;-83
2022/03/07 00:39:45;;;;;;;;;;;20.60;39.10;;;;;;688420;28;869;-83
2022/03/07 00:40:08;;;;;;;;;;;20.60;38.90;;;;;;688669;28;929;-83
2022/03/07 00:40:29;;;;;;;;;;;20.60;38.90;;;;;;691069;28;838;-83
2022/03/07 00:40:50;;;;;;;;;;;20.60;38.80;;;;;;688319;28;1217;-83
2022/03/07 00:41:10;;;;;;;;;;;20.60;38.90;;;;;;687650;28;1254;-83
2022/03/07 00:41:31;;;;;;;;;;;20.60;38.90;;;;;;685699;28;912;-84
2022/03/07 00:41:51;;;;;;;;;;;20.60;38.90;;;;;;685706;28;748;-83
2022/03/07 00:42:12;;;;;;;;;;;20.60;39.00;;;;;;685784;28;818;-83
2022/03/07 00:42:32;;;;;;;;;;;20.60;38.90;;;;;;683188;28;1205;-84
2022/03/07 00:42:53;;;;;;;;;;;20.60;38.90;;;;;;683210;28;1506;-83
2022/03/07 00:43:14;;;;;;;;;;;20.60;39.10;;;;;;682953;28;1207;-83
2022/03/07 00:43:34;;;;;;;;;;;20.60;39.00;;;;;;683079;29;804;-84
2022/03/07 00:43:55;;;;;;;;;;;20.60;39.00;;;;;;680274;29;945;-83
2022/03/07 00:44:15;;;;;;;;;;;20.60;39.00;;;;;;680813;29;1349;-83
2022/03/07 00:44:36;;;;;;;;;;;20.50;38.90;;;;;;680316;29;879;-83
2022/03/07 00:44:56;;;;;;;;;;;20.60;39.00;;;;;;677941;29;1202;-83
2022/03/07 00:45:17;;;;;;;;;;;20.60;39.00;;;;;;680426;29;874;-84
2022/03/07 00:45:38;;;;;;;;;;;20.60;39.00;;;;;;680750;29;784;-83
2022/03/07 00:45:58;;;;;;;;;;;20.50;39.10;;;;;;683201;28;1471;-84
2022/03/07 00:46:19;;;;;;;;;;;20.60;39.00;;;;;;686085;28;835;-83
2022/03/07 00:46:39;;;;;;;;;;;20.60;39.00;;;;;;685823;28;1582;-84
2022/03/07 00:47:00;;;;;;;;;;;20.60;39.00;;;;;;688434;28;796;-83
2022/03/07 00:47:20;;;;;;;;;;;20.60;39.00;;;;;;685696;28;1084;-83
2022/03/07 00:47:41;;;;;;;;;;;20.50;39.00;;;;;;685562;28;1898;-83
2022/03/07 00:48:02;;;;;;;;;;;20.50;39.00;;;;;;685772;28;882;-84
2022/03/07 00:48:22;;;;;;;;;;;20.50;39.00;;;;;;686023;28;878;-84
2022/03/07 00:48:43;;;;;;;;;;;20.50;39.00;;;;;;688309;28;1486;-83
2022/03/07 00:49:03;;;;;;;;;;;20.50;39.10;;;;;;685593;28;921;-84
2022/03/07 00:49:24;;;;;;;;;;;20.50;39.00;;;;;;682850;29;1064;-82
2022/03/07 00:49:44;;;;;;;;;;;20.60;39.00;;;;;;683042;29;815;-84
2022/03/07 00:50:06;;;;;;;;;;;20.50;39.30;;;;;;683119;29;885;-84
2022/03/07 00:50:26;;;;;;;;;;;20.50;39.10;;;;;;683413;28;1331;-84
2022/03/07 00:50:48;;;;;;;;;;;20.50;39.00;;;;;;683254;28;1530;-83
2022/03/07 00:51:08;;;;;;;;;;;20.50;39.10;;;;;;683411;28;889;-84
2022/03/07 00:51:29;;;;;;;;;;;20.50;39.20;;;;;;685046;28;1606;-84
2022/03/07 00:51:49;;;;;;;;;;;20.50;39.10;;;;;;682928;29;1225;-83
2022/03/07 00:52:10;;;;;;;;;;;20.50;39.10;;;;;;682957;29;1496;-84
2022/03/07 00:52:30;;;;;;;;;;;20.50;39.10;;;;;;683370;28;848;-84
2022/03/07 00:52:51;;;;;;;;;;;20.50;39.10;;;;;;682967;29;851;-83
2022/03/07 00:53:12;;;;;;;;;;;20.50;39.10;;;;;;682962;29;1233;-84
2022/03/07 00:53:33;;;;;;;;;;;20.50;39.10;;;;;;683402;28;894;-84
2022/03/07 00:53:53;;;;;;;;;;;20.50;39.20;;;;;;682949;29;1126;-85
2022/03/07 00:54:14;;;;;;;;;;;20.50;39.20;;;;;;680427;29;804;-84
2022/03/07 00:54:34;;;;;;;;;;;20.50;39.20;;;;;;680795;29;871;-84
2022/03/07 00:54:55;;;;;;;;;;;20.50;39.20;;;;;;680604;29;954;-83
2022/03/07 00:55:15;;;;;;;;;;;20.50;39.20;;;;;;680271;29;1168;-84
2022/03/07 00:55:37;;;;;;;;;;;20.50;39.10;;;;;;680529;29;1482;-84
2022/03/07 00:55:58;;;;;;;;;;;20.50;40.30;;;;;;683329;28;1277;-83
2022/03/07 00:56:18;;;;;;;;;;;20.50;39.20;;;;;;682937;29;1322;-84
2022/03/07 00:56:39;;;;;;;;;;;20.50;39.20;;;;;;680712;29;1297;-83
2022/03/07 00:56:59;;;;;;;;;;;20.50;39.20;;;;;;682891;29;1198;-84
2022/03/07 00:57:20;;;;;;;;;;;20.50;39.20;;;;;;683072;29;854;-84
2022/03/07 00:57:41;;;;;;;;;;;20.50;39.40;;;;;;683205;28;1320;-82
2022/03/07 00:58:01;;;;;;;;;;;20.50;39.30;;;;;;682922;29;1342;-82
2022/03/07 00:58:22;;;;;;;;;;;20.50;39.20;;;;;;683258;28;1339;-83
2022/03/07 00:58:43;;;;;;;;;;;20.50;39.20;;;;;;685585;28;1487;-84
2022/03/07 00:59:03;;;;;;;;;;;20.50;39.30;;;;;;685580;28;1288;-82
2022/03/07 00:59:24;;;;;;;;;;;20.50;39.20;;;;;;685727;28;878;-83
2022/03/07 00:59:44;;;;;;;;;;;20.50;39.20;;;;;;685733;28;791;-84
2022/03/07 01:00:05;;;;;;;;;;;20.50;39.50;;;;;;685552;28;1491;-84
2022/03/07 01:00:26;;;;;;;;;;;20.50;39.30;;;;;;685565;28;1220;-84
2022/03/07 01:00:46;;;;;;;;;;;20.50;39.30;;;;;;685983;28;1211;-83
2022/03/07 01:01:07;;;;;;;;;;;20.50;39.30;;;;;;685202;28;950;-84
2022/03/07 01:01:27;;;;;;;;;;;20.50;39.20;;;;;;685599;28;1101;-84
2022/03/07 01:01:48;;;;;;;;;;;20.50;39.30;;;;;;682844;29;1321;-83
2022/03/07 01:02:10;;;;;;;;;;;20.50;39.30;;;;;;682896;29;1201;-84
2022/03/07 01:02:30;;;;;;;;;;;20.50;39.30;;;;;;683397;28;872;-84
2022/03/07 01:02:51;;;;;;;;;;;20.50;39.20;;;;;;682606;29;1188;-83
2022/03/07 01:03:13;;;;;;;;;;;20.50;39.30;;;;;;680254;29;1201;-84
2022/03/07 01:03:33;;;;;;;;;;;20.50;39.30;;;;;;680957;29;1329;-84
2022/03/07 01:03:54;;;;;;;;;;;20.50;39.30;;;;;;683648;28;1410;-84
2022/03/07 01:04:14;;;;;;;;;;;20.50;39.30;;;;;;685639;28;903;-84
2022/03/07 01:04:35;;;;;;;;;;;20.50;39.30;;;;;;686155;28;878;-83
2022/03/07 01:04:56;;;;;;;;;;;20.50;39.30;;;;;;686157;28;1311;-83
2022/03/07 01:05:16;;;;;;;;;;;20.50;39.30;;;;;;685553;28;1511;-84
2022/03/07 01:05:38;;;;;;;;;;;20.50;39.30;;;;;;685529;28;1500;-83
2022/03/07 01:05:58;;;;;;;;;;;20.50;39.30;;;;;;685742;28;1056;-83
2022/03/07 01:06:19;;;;;;;;;;;20.50;39.30;;;;;;685723;28;882;-84
2022/03/07 01:06:39;;;;;;;;;;;20.50;39.30;;;;;;686057;28;1437;-84
2022/03/07 01:07:00;;;;;;;;;;;20.50;39.30;;;;;;686122;28;1129;-85
2022/03/07 01:07:21;;;;;;;;;;;20.50;39.40;;;;;;686599;28;784;-84
2022/03/07 01:07:41;;;;;;;;;;;20.50;39.50;;;;;;686058;28;1906;-85
2022/03/07 01:08:02;;;;;;;;;;;20.50;39.30;;;;;;686018;28;1243;-84
2022/03/07 01:08:23;;;;;;;;;;;20.50;39.40;;;;;;683457;28;1331;-84
2022/03/07 01:08:44;;;;;;;;;;;20.50;39.40;;;;;;683665;29;882;-83
2022/03/07 01:09:04;;;;;;;;;;;20.50;39.40;;;;;;680818;29;820;-84
2022/03/07 01:09:25;;;;;;;;;;;20.50;39.40;;;;;;681305;29;958;-84
2022/03/07 01:09:45;;;;;;;;;;;20.50;39.40;;;;;;683934;28;819;-84
2022/03/07 01:10:06;;;;;;;;;;;20.50;39.50;;;;;;686575;28;872;-83
2022/03/07 01:10:27;;;;;;;;;;;20.50;39.40;;;;;;688920;28;1030;-84
2022/03/07 01:10:47;;;;;;;;;;;20.50;39.30;;;;;;686380;28;1268;-83
2022/03/07 01:11:08;;;;;;;;;;;20.50;39.40;;;;;;686097;28;1546;-83
2022/03/07 01:11:29;;;;;;;;;;;20.50;39.40;;;;;;683461;28;1480;-83
2022/03/07 01:11:49;;;;;;;;;;;20.50;39.40;;;;;;683543;29;890;-84
2022/03/07 01:12:10;;;;;;;;;;;20.50;39.40;;;;;;680767;29;1244;-84
2022/03/07 01:12:30;;;;;;;;;;;20.50;39.50;;;;;;678766;29;1137;-85
2022/03/07 01:12:51;;;;;;;;;;;20.50;39.40;;;;;;681252;29;862;-83
2022/03/07 01:13:11;;;;;;;;;;;20.50;39.50;;;;;;683837;28;788;-83
2022/03/07 01:13:32;;;;;;;;;;;20.50;39.40;;;;;;686096;28;1464;-85
2022/03/07 01:13:52;;;;;;;;;;;20.50;39.50;;;;;;685912;28;927;-84
2022/03/07 01:14:13;;;;;;;;;;;20.50;39.50;;;;;;688920;28;764;-85
2022/03/07 01:14:34;;;;;;;;;;;20.50;39.50;;;;;;686081;28;822;-84
2022/03/07 01:14:55;;;;;;;;;;;20.50;39.50;;;;;;686106;28;1401;-83
2022/03/07 01:15:15;;;;;;;;;;;20.50;39.50;;;;;;686206;28;862;-85
2022/03/07 01:15:36;;;;;;;;;;;20.50;39.50;;;;;;686458;28;1372;-83
2022/03/07 01:15:57;;;;;;;;;;;20.50;39.50;;;;;;686111;28;1464;-82
2022/03/07 01:16:17;;;;;;;;;;;20.50;39.50;;;;;;686342;28;1249;-83
2022/03/07 01:16:38;;;;;;;;;;;20.50;39.50;;;;;;688393;28;1481;-84
2022/03/07 01:16:58;;;;;;;;;;;20.50;40.60;;;;;;686210;28;843;-84
2022/03/07 01:17:19;;;;;;;;;;;20.50;39.50;;;;;;683383;29;843;-83
2022/03/07 01:17:40;;;;;;;;;;;20.50;39.50;;;;;;683834;28;760;-83
2022/03/07 01:18:00;;;;;;;;;;;20.50;39.50;;;;;;685959;28;1238;-84
2022/03/07 01:18:21;;;;;;;;;;;20.50;39.50;;;;;;686502;28;835;-84
2022/03/07 01:18:41;;;;;;;;;;;20.40;39.40;;;;;;686087;28;1244;-84
2022/03/07 01:19:02;;;;;;;;;;;20.50;40.60;;;;;;686247;28;823;-84
2022/03/07 01:19:23;;;;;;;;;;;20.50;39.50;;;;;;686072;28;1488;-85
2022/03/07 01:19:43;;;;;;;;;;;20.40;39.60;;;;;;683659;28;1381;-85
2022/03/07 01:20:04;;;;;;;;;;;20.50;39.50;;;;;;686300;28;823;-84
2022/03/07 01:20:26;;;;;;;;;;;20.50;39.60;;;;;;686454;28;1374;-84
2022/03/07 01:20:46;;;;;;;;;;;20.40;39.50;;;;;;688807;28;1380;-84
2022/03/07 01:21:07;;;;;;;;;;;20.50;39.50;;;;;;688749;28;1500;-83
2022/03/07 01:21:27;;;;;;;;;;;20.50;39.50;;;;;;685913;28;1521;-83
2022/03/07 01:21:48;;;;;;;;;;;20.50;39.60;;;;;;686210;28;811;-83
2022/03/07 01:22:09;;;;;;;;;;;20.50;39.50;;;;;;686214;28;831;-83
2022/03/07 01:22:29;;;;;;;;;;;20.40;39.40;;;;;;686049;28;1196;-83
2022/03/07 01:22:50;;;;;;;;;;;20.40;39.50;;;;;;686074;28;1214;-84
2022/03/07 01:23:10;;;;;;;;;;;20.40;39.50;;;;;;686405;28;898;-83
2022/03/07 01:23:31;;;;;;;;;;;20.40;39.40;;;;;;688859;28;859;-85
2022/03/07 01:23:51;;;;;;;;;;;20.50;39.60;;;;;;688883;28;783;-83
2022/03/07 01:24:12;;;;;;;;;;;20.40;39.50;;;;;;689053;28;782;-84
2022/03/07 01:24:32;;;;;;;;;;;20.50;39.50;;;;;;686234;28;1343;-84
2022/03/07 01:24:53;;;;;;;;;;;20.40;39.50;;;;;;688928;28;823;-83
2022/03/07 01:25:13;;;;;;;;;;;20.50;39.50;;;;;;688890;28;909;-82
2022/03/07 01:25:34;;;;;;;;;;;20.50;39.50;;;;;;688810;28;798;-83
2022/03/07 01:25:55;;;;;;;;;;;20.50;39.60;;;;;;686102;28;1619;-84
2022/03/07 01:26:15;;;;;;;;;;;20.50;39.60;;;;;;686555;28;937;-83
2022/03/07 01:26:37;;;;;;;;;;;20.40;39.50;;;;;;688806;28;790;-84
2022/03/07 01:26:57;;;;;;;;;;;20.40;39.50;;;;;;688838;28;794;-83
2022/03/07 01:27:18;;;;;;;;;;;20.50;39.50;;;;;;688888;28;802;-83
2022/03/07 01:27:39;;;;;;;;;;;20.40;39.50;;;;;;688790;28;1902;-84
2022/03/07 01:27:59;;;;;;;;;;;20.50;39.60;;;;;;688735;28;1179;-83
2022/03/07 01:28:21;;;;;;;;;;;20.50;39.60;;;;;;688808;28;1321;-83
2022/03/07 01:28:41;;;;;;;;;;;20.50;39.60;;;;;;685997;28;1248;-83
2022/03/07 01:29:02;;;;;;;;;;;20.40;39.50;;;;;;683462;29;1477;-83
2022/03/07 01:29:23;;;;;;;;;;;20.50;39.50;;;;;;683441;29;1342;-83
2022/03/07 01:29:43;;;;;;;;;;;20.40;39.50;;;;;;681153;29;1291;-83
2022/03/07 01:30:04;;;;;;;;;;;20.40;39.50;;;;;;683566;29;898;-84
2022/03/07 01:30:25;;;;;;;;;;;20.40;39.50;;;;;;683492;29;870;-82
2022/03/07 01:30:47;;;;;;;;;;;20.50;39.60;;;;;;683847;28;902;-83
2022/03/07 01:31:08;;;;;;;;;;;20.40;39.50;;;;;;686770;28;755;-84
2022/03/07 01:31:28;;;;;;;;;;;20.50;39.60;;;;;;688968;28;866;-84
2022/03/07 01:31:49;;;;;;;;;;;20.40;39.50;;;;;;689114;28;878;-83
2022/03/07 01:32:10;;;;;;;;;;;20.40;39.50;;;;;;689016;28;858;-84
2022/03/07 01:32:30;;;;;;;;;;;20.50;39.70;;;;;;689101;28;758;-84
2022/03/07 01:32:54;;;;;;;;;;;20.50;39.60;;;;;;689063;28;795;-84
2022/03/07 01:33:14;;;;;;;;;;;20.40;39.50;;;;;;691558;28;1258;-83
2022/03/07 01:33:35;;;;;;;;;;;20.40;40.60;;;;;;691529;28;913;-84
2022/03/07 01:33:55;;;;;;;;;;;20.40;39.50;;;;;;688767;28;1095;-84
2022/03/07 01:34:16;;;;;;;;;;;20.50;39.60;;;;;;688797;28;894;-84
2022/03/07 01:34:37;;;;;;;;;;;20.50;39.60;;;;;;688757;28;846;-83
2022/03/07 01:34:57;;;;;;;;;;;20.40;39.60;;;;;;686027;28;827;-84
2022/03/07 01:35:18;;;;;;;;;;;20.40;39.50;;;;;;683440;29;1163;-84
2022/03/07 01:35:39;;;;;;;;;;;20.40;39.60;;;;;;683751;28;855;-82
2022/03/07 01:35:59;;;;;;;;;;;20.40;39.50;;;;;;686104;28;1494;-83
2022/03/07 01:36:20;;;;;;;;;;;20.50;39.70;;;;;;686133;28;941;-84
2022/03/07 01:36:40;;;;;;;;;;;20.50;39.60;;;;;;686463;28;846;-84
2022/03/07 01:37:01;;;;;;;;;;;20.50;39.70;;;;;;685997;28;910;-84
2022/03/07 01:37:22;;;;;;;;;;;20.40;39.80;;;;;;686195;28;830;-84
2022/03/07 01:37:42;;;;;;;;;;;20.40;39.90;;;;;;683627;28;819;-84
2022/03/07 01:38:03;;;;;;;;;;;20.40;39.70;;;;;;683439;28;1379;-84
2022/03/07 01:38:24;;;;;;;;;;;20.50;39.70;;;;;;683549;29;877;-84
2022/03/07 01:38:45;;;;;;;;;;;20.40;39.60;;;;;;683842;28;814;-83
2022/03/07 01:39:05;;;;;;;;;;;20.50;39.70;;;;;;686120;28;996;-83
2022/03/07 01:39:26;;;;;;;;;;;20.50;39.70;;;;;;686417;28;1231;-84
2022/03/07 01:39:46;;;;;;;;;;;20.50;39.60;;;;;;689110;28;889;-83
2022/03/07 01:40:07;;;;;;;;;;;20.50;39.70;;;;;;688706;28;883;-84
2022/03/07 01:40:28;;;;;;;;;;;20.50;39.60;;;;;;685988;28;1150;-83
2022/03/07 01:40:51;;;;;;;;;;;20.50;39.60;;;;;;683691;28;1357;-83
2022/03/07 01:41:12;;;;;;;;;;;20.40;39.60;;;;;;683414;29;1400;-84
2022/03/07 01:41:32;;;;;;;;;;;20.50;39.60;;;;;;683202;29;1218;-84
2022/03/07 01:41:53;;;;;;;;;;;20.50;40.10;;;;;;684060;28;879;-84
2022/03/07 01:42:14;;;;;;;;;;;20.50;39.70;;;;;;686864;28;799;-84
2022/03/07 01:42:34;;;;;;;;;;;20.50;39.60;;;;;;686118;28;1154;-84
2022/03/07 01:42:55;;;;;;;;;;;20.50;39.60;;;;;;683311;29;1312;-84
2022/03/07 01:43:16;;;;;;;;;;;20.50;39.60;;;;;;680753;29;1246;-85
2022/03/07 01:43:36;;;;;;;;;;;20.50;39.90;;;;;;680753;29;1130;-84
2022/03/07 01:43:57;;;;;;;;;;;20.50;39.80;;;;;;677770;29;892;-84
2022/03/07 01:44:22;;;;;;;;;;;20.50;40.00;;;;;;678383;29;1261;-84
2022/03/07 01:44:42;;;;;;;;;;;20.50;39.70;;;;;;681694;29;807;-85
2022/03/07 01:45:13;;;;;;;;;;;20.50;39.90;;;;;;684162;28;1193;-84
2022/03/07 01:45:34;;;;;;;;;;;20.50;39.70;;;;;;686073;28;992;-83
2022/03/07 01:45:54;;;;;;;;;;;20.50;39.60;;;;;;688351;28;886;-83
2022/03/07 01:46:15;;;;;;;;;;;20.50;39.70;;;;;;691145;28;854;-83
2022/03/07 01:46:35;;;;;;;;;;;20.50;39.60;;;;;;691386;28;1519;-83
2022/03/07 01:46:57;;;;;;;;;;;20.50;39.60;;;;;;687027;28;1647;-84
2022/03/07 01:47:17;;;;;;;;;;;20.50;39.60;;;;;;683000;29;1342;-84
2022/03/07 01:47:39;;;;;;;;;;;20.50;39.60;;;;;;680629;29;1910;-84
2022/03/07 01:47:59;;;;;;;;;;;20.50;39.60;;;;;;680722;29;1413;-83
2022/03/07 01:48:20;;;;;;;;;;;20.50;39.70;;;;;;683381;28;1241;-83
2022/03/07 01:48:40;;;;;;;;;;;20.50;39.70;;;;;;683806;28;1219;-83
2022/03/07 01:49:01;;;;;;;;;;;20.50;39.60;;;;;;686176;28;874;-83
2022/03/07 01:49:22;;;;;;;;;;;20.50;39.50;;;;;;686392;28;1063;-83
2022/03/07 01:49:43;;;;;;;;;;;20.50;39.60;;;;;;686028;28;823;-84
2022/03/07 01:50:04;;;;;;;;;;;20.50;39.60;;;;;;686203;28;842;-84
2022/03/07 01:50:25;;;;;;;;;;;20.50;39.60;;;;;;686625;28;850;-84
2022/03/07 01:50:45;;;;;;;;;;;20.50;39.60;;;;;;688832;28;807;-84
2022/03/07 01:51:07;;;;;;;;;;;20.50;39.60;;;;;;686135;28;816;-83
2022/03/07 01:51:28;;;;;;;;;;;20.50;39.60;;;;;;683501;28;822;-83
2022/03/07 01:51:48;;;;;;;;;;;20.60;39.60;;;;;;685926;28;1328;-84
2022/03/07 01:52:09;;;;;;;;;;;20.50;39.60;;;;;;686109;28;930;-82
2022/03/07 01:52:30;;;;;;;;;;;20.60;39.60;;;;;;686117;28;807;-83
2022/03/07 01:52:53;;;;;;;;;;;20.60;39.60;;;;;;683876;28;800;-84
2022/03/07 01:53:14;;;;;;;;;;;20.50;39.60;;;;;;686089;28;847;-83
2022/03/07 01:53:34;;;;;;;;;;;20.50;39.60;;;;;;685656;28;1101;-83
2022/03/07 01:53:55;;;;;;;;;;;20.60;39.60;;;;;;685939;28;1250;-84
2022/03/07 01:54:17;;;;;;;;;;;20.50;39.60;;;;;;686708;28;1318;-85
2022/03/07 01:54:37;;;;;;;;;;;20.50;39.60;;;;;;688766;28;826;-84
2022/03/07 01:54:58;;;;;;;;;;;20.50;39.60;;;;;;686030;28;1243;-84
2022/03/07 01:55:18;;;;;;;;;;;20.50;39.50;;;;;;683846;28;927;-84
2022/03/07 01:55:39;;;;;;;;;;;20.50;39.50;;;;;;685594;28;1250;-84
2022/03/07 01:56:00;;;;;;;;;;;20.50;39.50;;;;;;685899;28;1297;-83
2022/03/07 01:56:20;;;;;;;;;;;20.50;39.60;;;;;;683384;28;1449;-82
2022/03/07 01:56:42;;;;;;;;;;;20.50;39.50;;;;;;683514;29;854;-83
2022/03/07 01:57:03;;;;;;;;;;;20.60;39.60;;;;;;681098;29;828;-84
2022/03/07 01:57:24;;;;;;;;;;;20.50;39.50;;;;;;683889;28;820;-84
2022/03/07 01:57:45;;;;;;;;;;;20.50;39.50;;;;;;686123;28;807;-82
2022/03/07 01:58:05;;;;;;;;;;;20.50;39.60;;;;;;683964;28;1547;-84
2022/03/07 01:58:26;;;;;;;;;;;20.60;39.60;;;;;;682928;29;925;-83
2022/03/07 01:58:47;;;;;;;;;;;20.50;39.60;;;;;;681016;29;1336;-83
2022/03/07 01:59:09;;;;;;;;;;;20.50;39.50;;;;;;683471;29;854;-83
2022/03/07 01:59:33;;;;;;;;;;;20.60;39.60;;;;;;683450;29;1346;-83
2022/03/07 01:59:53;;;;;;;;;;;20.60;39.60;;;;;;684163;28;1401;-84
2022/03/07 02:00:18;;;;;;;;;;;20.50;39.60;;;;;;684202;28;1255;-83
2022/03/07 02:00:39;;;;;;;;;;;20.60;39.70;;;;;;686088;28;834;-83
2022/03/07 02:00:59;;;;;;;;;;;20.50;39.50;;;;;;683243;29;1346;-84
2022/03/07 02:01:20;;;;;;;;;;;20.60;39.60;;;;;;683468;29;834;-83
2022/03/07 02:01:41;;;;;;;;;;;20.50;39.50;;;;;;684201;28;1328;-84
2022/03/07 02:02:01;;;;;;;;;;;20.60;39.50;;;;;;684168;28;910;-83
2022/03/07 02:02:24;;;;;;;;;;;20.60;39.60;;;;;;686019;28;811;-84
2022/03/07 02:02:45;;;;;;;;;;;20.50;39.70;;;;;;686005;28;892;-83
2022/03/07 02:03:06;;;;;;;;;;;20.60;39.60;;;;;;685991;28;1006;-83
2022/03/07 02:03:27;;;;;;;;;;;20.60;39.60;;;;;;686781;28;1484;-82
2022/03/07 02:03:48;;;;;;;;;;;20.50;39.50;;;;;;688756;28;787;-82
2022/03/07 02:04:08;;;;;;;;;;;20.50;39.60;;;;;;685939;28;1492;-83
2022/03/07 02:04:29;;;;;;;;;;;20.50;39.60;;;;;;686052;28;672;-84
2022/03/07 02:04:50;;;;;;;;;;;20.50;39.60;;;;;;686125;28;871;-83
2022/03/07 02:05:11;;;;;;;;;;;20.50;39.60;;;;;;683631;28;1239;-83
2022/03/07 02:05:32;;;;;;;;;;;20.50;39.60;;;;;;685955;28;891;-84